sensor_id;sensor_type;location;lat;lon;timestamp;P1;durP1;ratioP1;P2;durP2;ratioP2
31782;SDS011;18351;47.560;9.708;2023-04-01T00:00:29;2.03;;;0.73;;
31782;SDS011;18351;47.560;9.708;2023-04-01T00:02:55;2.25;;;0.90;;
31782;SDS011;18351;47.560;9.708;2023-04-01T00:05:20;2.08;;;0.98;;
31782;SDS011;18351;47.560;9.708;2023-04-01T00:07:46;2.72;;;0.75;;
31782;SDS011;18351;47.560;9.708;2023-04-01T00:10:12;3.13;;;0.70;;
31782;SDS011;18351;47.560;9.708;2023-04-01T00:12:39;1.38;;;0.70;;
31782;SDS011;18351;47.560;9.708;2023-04-01T00:15:06;2.47;;;0.65;;
31782;SDS011;18351;47.560;9.708;2023-04-01T00:17:33;1.90;;;0.80;;
31782;SDS011;18351;47.560;9.708;2023-04-01T00:19:59;1.35;;;0.70;;
31782;SDS011;18351;47.560;9.708;2023-04-01T00:22:25;0.90;;;0.50;;
31782;SDS011;18351;47.560;9.708;2023-04-01T00:24:51;1.77;;;0.90;;
31782;SDS011;18351;47.560;9.708;2023-04-01T00:27:17;1.90;;;0.85;;
31782;SDS011;18351;47.560;9.708;2023-04-01T00:29:43;1.33;;;0.60;;
31782;SDS011;18351;47.560;9.708;2023-04-01T00:32:09;0.82;;;0.60;;
31782;SDS011;18351;47.560;9.708;2023-04-01T00:34:35;0.95;;;0.60;;
31782;SDS011;18351;47.560;9.708;2023-04-01T00:37:01;0.73;;;0.50;;
31782;SDS011;18351;47.560;9.708;2023-04-01T00:39:30;2.60;;;0.60;;
31782;SDS011;18351;47.560;9.708;2023-04-01T00:41:57;1.05;;;0.68;;
31782;SDS011;18351;47.560;9.708;2023-04-01T00:44:25;0.60;;;0.60;;
31782;SDS011;18351;47.560;9.708;2023-04-01T00:46:56;0.57;;;0.57;;
31782;SDS011;18351;47.560;9.708;2023-04-01T00:49:22;1.15;;;0.80;;
31782;SDS011;18351;47.560;9.708;2023-04-01T00:51:52;1.45;;;0.82;;
31782;SDS011;18351;47.560;9.708;2023-04-01T00:54:20;2.17;;;0.60;;
31782;SDS011;18351;47.560;9.708;2023-04-01T00:56:52;1.70;;;0.80;;
31782;SDS011;18351;47.560;9.708;2023-04-01T00:59:25;1.00;;;0.75;;
31782;SDS011;18351;47.560;9.708;2023-04-01T01:01:54;2.00;;;0.68;;
31782;SDS011;18351;47.560;9.708;2023-04-01T01:04:21;0.75;;;0.50;;
31782;SDS011;18351;47.560;9.708;2023-04-01T01:12:22;1.90;;;0.60;;
31782;SDS011;18351;47.560;9.708;2023-04-01T01:14:52;1.27;;;0.60;;
31782;SDS011;18351;47.560;9.708;2023-04-01T01:23:08;1.08;;;0.60;;
31782;SDS011;18351;47.560;9.708;2023-04-01T01:31:44;2.33;;;0.70;;
31782;SDS011;18351;47.560;9.708;2023-04-01T01:36:59;3.92;;;0.80;;
31782;SDS011;18351;47.560;9.708;2023-04-01T01:39:31;0.70;;;0.70;;
31782;SDS011;18351;47.560;9.708;2023-04-01T01:42:01;3.30;;;1.33;;
31782;SDS011;18351;47.560;9.708;2023-04-01T01:44:30;2.47;;;0.80;;
31782;SDS011;18351;47.560;9.708;2023-04-01T01:46:59;1.67;;;0.85;;
31782;SDS011;18351;47.560;9.708;2023-04-01T01:49:26;3.03;;;0.80;;
31782;SDS011;18351;47.560;9.708;2023-04-01T01:51:55;2.92;;;0.80;;
31782;SDS011;18351;47.560;9.708;2023-04-01T01:54:21;2.95;;;0.80;;
31782;SDS011;18351;47.560;9.708;2023-04-01T01:56:47;2.38;;;0.65;;
31782;SDS011;18351;47.560;9.708;2023-04-01T01:59:16;1.20;;;0.73;;
31782;SDS011;18351;47.560;9.708;2023-04-01T02:01:46;1.48;;;0.90;;
31782;SDS011;18351;47.560;9.708;2023-04-01T02:04:17;2.58;;;1.00;;
31782;SDS011;18351;47.560;9.708;2023-04-01T02:06:54;2.53;;;1.38;;
31782;SDS011;18351;47.560;9.708;2023-04-01T02:09:25;2.42;;;1.10;;
31782;SDS011;18351;47.560;9.708;2023-04-01T02:12:00;1.67;;;0.80;;
31782;SDS011;18351;47.560;9.708;2023-04-01T02:17:17;2.30;;;1.00;;
31782;SDS011;18351;47.560;9.708;2023-04-01T02:19:48;2.75;;;1.17;;
31782;SDS011;18351;47.560;9.708;2023-04-01T02:22:19;2.63;;;0.80;;
31782;SDS011;18351;47.560;9.708;2023-04-01T02:24:49;2.10;;;0.82;;
31782;SDS011;18351;47.560;9.708;2023-04-01T02:27:18;2.45;;;0.98;;
31782;SDS011;18351;47.560;9.708;2023-04-01T02:29:45;2.47;;;1.10;;
31782;SDS011;18351;47.560;9.708;2023-04-01T02:32:10;1.00;;;0.70;;
31782;SDS011;18351;47.560;9.708;2023-04-01T02:34:38;0.73;;;0.70;;
31782;SDS011;18351;47.560;9.708;2023-04-01T02:37:05;1.17;;;0.70;;
31782;SDS011;18351;47.560;9.708;2023-04-01T02:39:31;0.70;;;0.60;;
31782;SDS011;18351;47.560;9.708;2023-04-01T02:41:56;2.47;;;0.70;;
31782;SDS011;18351;47.560;9.708;2023-04-01T02:44:22;0.93;;;0.77;;
31782;SDS011;18351;47.560;9.708;2023-04-01T02:46:48;1.25;;;0.70;;
31782;SDS011;18351;47.560;9.708;2023-04-01T02:49:14;1.20;;;0.82;;
31782;SDS011;18351;47.560;9.708;2023-04-01T02:51:39;4.18;;;0.70;;
31782;SDS011;18351;47.560;9.708;2023-04-01T02:54:05;1.50;;;0.65;;
31782;SDS011;18351;47.560;9.708;2023-04-01T02:56:31;2.90;;;0.60;;
31782;SDS011;18351;47.560;9.708;2023-04-01T02:58:56;1.00;;;0.70;;
31782;SDS011;18351;47.560;9.708;2023-04-01T03:01:22;2.83;;;0.70;;
31782;SDS011;18351;47.560;9.708;2023-04-01T03:03:48;2.55;;;0.70;;
31782;SDS011;18351;47.560;9.708;2023-04-01T03:06:15;3.22;;;1.27;;
31782;SDS011;18351;47.560;9.708;2023-04-01T03:08:41;4.40;;;0.77;;
31782;SDS011;18351;47.560;9.708;2023-04-01T03:11:07;1.38;;;0.65;;
31782;SDS011;18351;47.560;9.708;2023-04-01T03:13:33;3.50;;;0.80;;
31782;SDS011;18351;47.560;9.708;2023-04-01T03:15:59;2.40;;;0.65;;
31782;SDS011;18351;47.560;9.708;2023-04-01T03:18:25;4.85;;;1.00;;
31782;SDS011;18351;47.560;9.708;2023-04-01T03:20:50;3.75;;;1.25;;
31782;SDS011;18351;47.560;9.708;2023-04-01T03:23:16;2.72;;;0.88;;
31782;SDS011;18351;47.560;9.708;2023-04-01T03:25:44;2.03;;;1.08;;
31782;SDS011;18351;47.560;9.708;2023-04-01T03:28:10;4.75;;;1.13;;
31782;SDS011;18351;47.560;9.708;2023-04-01T03:30:35;2.42;;;0.90;;
31782;SDS011;18351;47.560;9.708;2023-04-01T03:33:01;3.33;;;1.00;;
31782;SDS011;18351;47.560;9.708;2023-04-01T03:35:27;2.20;;;0.98;;
31782;SDS011;18351;47.560;9.708;2023-04-01T03:37:53;3.13;;;0.80;;
31782;SDS011;18351;47.560;9.708;2023-04-01T03:40:19;4.55;;;1.10;;
31782;SDS011;18351;47.560;9.708;2023-04-01T03:42:46;4.88;;;1.15;;
31782;SDS011;18351;47.560;9.708;2023-04-01T03:45:11;4.00;;;1.85;;
31782;SDS011;18351;47.560;9.708;2023-04-01T03:47:37;6.40;;;1.40;;
31782;SDS011;18351;47.560;9.708;2023-04-01T03:50:03;3.28;;;1.00;;
31782;SDS011;18351;47.560;9.708;2023-04-01T03:52:30;3.17;;;1.33;;
31782;SDS011;18351;47.560;9.708;2023-04-01T03:54:55;4.40;;;1.20;;
31782;SDS011;18351;47.560;9.708;2023-04-01T03:57:21;4.10;;;0.90;;
31782;SDS011;18351;47.560;9.708;2023-04-01T03:59:47;4.10;;;1.77;;
31782;SDS011;18351;47.560;9.708;2023-04-01T04:02:12;5.38;;;1.25;;
31782;SDS011;18351;47.560;9.708;2023-04-01T04:04:38;3.05;;;1.02;;
31782;SDS011;18351;47.560;9.708;2023-04-01T04:07:03;5.65;;;1.23;;
31782;SDS011;18351;47.560;9.708;2023-04-01T04:09:32;5.00;;;1.20;;
31782;SDS011;18351;47.560;9.708;2023-04-01T04:11:58;2.40;;;1.63;;
31782;SDS011;18351;47.560;9.708;2023-04-01T04:14:25;4.82;;;1.10;;
31782;SDS011;18351;47.560;9.708;2023-04-01T04:16:50;4.47;;;1.20;;
31782;SDS011;18351;47.560;9.708;2023-04-01T04:19:16;7.60;;;1.65;;
31782;SDS011;18351;47.560;9.708;2023-04-01T04:21:41;2.85;;;1.13;;
31782;SDS011;18351;47.560;9.708;2023-04-01T04:24:07;4.00;;;1.10;;
31782;SDS011;18351;47.560;9.708;2023-04-01T04:26:33;4.43;;;1.27;;
31782;SDS011;18351;47.560;9.708;2023-04-01T04:28:59;3.25;;;1.55;;
31782;SDS011;18351;47.560;9.708;2023-04-01T04:31:25;3.72;;;1.20;;
31782;SDS011;18351;47.560;9.708;2023-04-01T04:33:51;2.80;;;1.25;;
31782;SDS011;18351;47.560;9.708;2023-04-01T04:36:17;5.18;;;1.50;;
31782;SDS011;18351;47.560;9.708;2023-04-01T04:38:43;5.53;;;1.20;;
31782;SDS011;18351;47.560;9.708;2023-04-01T04:41:12;5.50;;;1.27;;
31782;SDS011;18351;47.560;9.708;2023-04-01T04:43:39;3.60;;;0.93;;
31782;SDS011;18351;47.560;9.708;2023-04-01T04:46:09;3.05;;;1.00;;
31782;SDS011;18351;47.560;9.708;2023-04-01T04:48:35;2.88;;;1.15;;
31782;SDS011;18351;47.560;9.708;2023-04-01T04:51:01;4.10;;;1.08;;
31782;SDS011;18351;47.560;9.708;2023-04-01T04:53:28;4.35;;;1.05;;
31782;SDS011;18351;47.560;9.708;2023-04-01T04:55:54;2.03;;;1.10;;
31782;SDS011;18351;47.560;9.708;2023-04-01T04:58:19;2.25;;;0.90;;
31782;SDS011;18351;47.560;9.708;2023-04-01T05:00:45;5.53;;;1.50;;
31782;SDS011;18351;47.560;9.708;2023-04-01T05:03:11;4.97;;;1.00;;
31782;SDS011;18351;47.560;9.708;2023-04-01T05:05:38;2.78;;;1.20;;
31782;SDS011;18351;47.560;9.708;2023-04-01T05:08:04;1.95;;;0.95;;
31782;SDS011;18351;47.560;9.708;2023-04-01T05:10:30;3.20;;;1.02;;
31782;SDS011;18351;47.560;9.708;2023-04-01T05:12:56;1.90;;;0.80;;
31782;SDS011;18351;47.560;9.708;2023-04-01T05:15:22;3.95;;;1.10;;
31782;SDS011;18351;47.560;9.708;2023-04-01T05:17:48;3.90;;;0.90;;
31782;SDS011;18351;47.560;9.708;2023-04-01T05:20:13;3.13;;;0.90;;
31782;SDS011;18351;47.560;9.708;2023-04-01T05:22:39;4.60;;;1.45;;
31782;SDS011;18351;47.560;9.708;2023-04-01T05:25:07;2.40;;;1.02;;
31782;SDS011;18351;47.560;9.708;2023-04-01T05:27:32;2.55;;;0.80;;
31782;SDS011;18351;47.560;9.708;2023-04-01T05:29:58;2.10;;;0.93;;
31782;SDS011;18351;47.560;9.708;2023-04-01T05:32:23;4.35;;;1.33;;
31782;SDS011;18351;47.560;9.708;2023-04-01T05:34:53;2.10;;;0.90;;
31782;SDS011;18351;47.560;9.708;2023-04-01T05:37:18;1.67;;;0.75;;
31782;SDS011;18351;47.560;9.708;2023-04-01T05:39:45;2.75;;;0.90;;
31782;SDS011;18351;47.560;9.708;2023-04-01T05:42:10;4.07;;;1.00;;
31782;SDS011;18351;47.560;9.708;2023-04-01T05:44:36;3.65;;;1.02;;
31782;SDS011;18351;47.560;9.708;2023-04-01T05:47:02;1.33;;;0.90;;
31782;SDS011;18351;47.560;9.708;2023-04-01T05:49:28;2.67;;;0.93;;
31782;SDS011;18351;47.560;9.708;2023-04-01T05:51:55;3.83;;;0.90;;
31782;SDS011;18351;47.560;9.708;2023-04-01T05:54:21;6.30;;;2.22;;
31782;SDS011;18351;47.560;9.708;2023-04-01T05:56:46;3.70;;;0.93;;
31782;SDS011;18351;47.560;9.708;2023-04-01T05:59:12;2.10;;;0.93;;
31782;SDS011;18351;47.560;9.708;2023-04-01T06:01:38;4.22;;;0.82;;
31782;SDS011;18351;47.560;9.708;2023-04-01T06:04:04;4.25;;;0.80;;
31782;SDS011;18351;47.560;9.708;2023-04-01T06:06:30;2.25;;;0.77;;
31782;SDS011;18351;47.560;9.708;2023-04-01T06:11:54;2.25;;;1.30;;
31782;SDS011;18351;47.560;9.708;2023-04-01T06:25:35;2.28;;;0.95;;
31782;SDS011;18351;47.560;9.708;2023-04-01T06:31:03;1.95;;;0.80;;
31782;SDS011;18351;47.560;9.708;2023-04-01T06:33:51;1.10;;;0.70;;
31782;SDS011;18351;47.560;9.708;2023-04-01T06:44:51;2.95;;;1.35;;
31782;SDS011;18351;47.560;9.708;2023-04-01T06:50:22;1.35;;;0.77;;
31782;SDS011;18351;47.560;9.708;2023-04-01T06:55:44;1.23;;;0.70;;
31782;SDS011;18351;47.560;9.708;2023-04-01T07:00:43;1.02;;;0.80;;
31782;SDS011;18351;47.560;9.708;2023-04-01T07:03:21;1.17;;;0.77;;
31782;SDS011;18351;47.560;9.708;2023-04-01T07:05:56;1.02;;;0.90;;
31782;SDS011;18351;47.560;9.708;2023-04-01T07:08:26;3.13;;;1.13;;
31782;SDS011;18351;47.560;9.708;2023-04-01T07:10:56;2.03;;;0.93;;
31782;SDS011;18351;47.560;9.708;2023-04-01T07:13:28;5.38;;;2.58;;
31782;SDS011;18351;47.560;9.708;2023-04-01T07:16:05;1.92;;;1.13;;
31782;SDS011;18351;47.560;9.708;2023-04-01T07:18:44;2.40;;;1.38;;
31782;SDS011;18351;47.560;9.708;2023-04-01T07:21:21;2.88;;;0.98;;
31782;SDS011;18351;47.560;9.708;2023-04-01T07:23:54;1.80;;;1.20;;
31782;SDS011;18351;47.560;9.708;2023-04-01T07:26:25;0.98;;;0.75;;
31782;SDS011;18351;47.560;9.708;2023-04-01T07:28:52;4.50;;;1.00;;
31782;SDS011;18351;47.560;9.708;2023-04-01T07:39:17;1.88;;;1.10;;
31782;SDS011;18351;47.560;9.708;2023-04-01T07:45:22;0.90;;;0.90;;
31782;SDS011;18351;47.560;9.708;2023-04-01T07:51:00;3.13;;;0.95;;
31782;SDS011;18351;47.560;9.708;2023-04-01T07:53:36;2.38;;;0.88;;
31782;SDS011;18351;47.560;9.708;2023-04-01T07:56:15;1.00;;;0.90;;
31782;SDS011;18351;47.560;9.708;2023-04-01T07:58:54;1.27;;;0.90;;
31782;SDS011;18351;47.560;9.708;2023-04-01T08:05:03;1.50;;;1.10;;
31782;SDS011;18351;47.560;9.708;2023-04-01T08:28:29;1.10;;;0.90;;
31782;SDS011;18351;47.560;9.708;2023-04-01T08:30:59;3.65;;;0.90;;
31782;SDS011;18351;47.560;9.708;2023-04-01T08:33:36;1.20;;;0.60;;
31782;SDS011;18351;47.560;9.708;2023-04-01T08:44:16;3.10;;;0.68;;
31782;SDS011;18351;47.560;9.708;2023-04-01T08:46:52;0.63;;;0.63;;
31782;SDS011;18351;47.560;9.708;2023-04-01T08:49:37;3.10;;;0.80;;
31782;SDS011;18351;47.560;9.708;2023-04-01T08:57:24;0.82;;;0.80;;
31782;SDS011;18351;47.560;9.708;2023-04-01T09:00:14;3.55;;;1.10;;
31782;SDS011;18351;47.560;9.708;2023-04-01T09:08:44;0.57;;;0.50;;
31782;SDS011;18351;47.560;9.708;2023-04-01T09:11:40;1.42;;;0.93;;
31782;SDS011;18351;47.560;9.708;2023-04-01T09:17:21;0.52;;;0.50;;
31782;SDS011;18351;47.560;9.708;2023-04-01T09:25:38;0.55;;;0.55;;
31782;SDS011;18351;47.560;9.708;2023-04-01T09:42:44;0.60;;;0.60;;
31782;SDS011;18351;47.560;9.708;2023-04-01T09:50:53;0.70;;;0.70;;
31782;SDS011;18351;47.560;9.708;2023-04-01T10:15:34;2.22;;;1.48;;
31782;SDS011;18351;47.560;9.708;2023-04-01T10:26:12;0.85;;;0.80;;
31782;SDS011;18351;47.560;9.708;2023-04-01T10:28:59;0.88;;;0.70;;
31782;SDS011;18351;47.560;9.708;2023-04-01T10:35:14;1.52;;;0.60;;
31782;SDS011;18351;47.560;9.708;2023-04-01T10:40:53;1.33;;;0.93;;
31782;SDS011;18351;47.560;9.708;2023-04-01T10:46:57;3.03;;;1.83;;
31782;SDS011;18351;47.560;9.708;2023-04-01T11:00:48;1.55;;;1.30;;
31782;SDS011;18351;47.560;9.708;2023-04-01T11:17:33;1.52;;;1.02;;
31782;SDS011;18351;47.560;9.708;2023-04-01T11:34:40;0.45;;;0.40;;
31782;SDS011;18351;47.560;9.708;2023-04-01T11:42:28;1.10;;;0.68;;
31782;SDS011;18351;47.560;9.708;2023-04-01T11:47:55;1.67;;;1.27;;
31782;SDS011;18351;47.560;9.708;2023-04-01T11:53:44;0.50;;;0.50;;
31782;SDS011;18351;47.560;9.708;2023-04-01T11:56:35;0.50;;;0.50;;
31782;SDS011;18351;47.560;9.708;2023-04-01T12:05:40;0.60;;;0.60;;
31782;SDS011;18351;47.560;9.708;2023-04-01T12:19:20;0.60;;;0.60;;
31782;SDS011;18351;47.560;9.708;2023-04-01T12:22:23;1.38;;;1.23;;
31782;SDS011;18351;47.560;9.708;2023-04-01T12:30:47;1.27;;;1.00;;
31782;SDS011;18351;47.560;9.708;2023-04-01T12:33:37;2.97;;;1.50;;
31782;SDS011;18351;47.560;9.708;2023-04-01T12:36:35;1.92;;;0.82;;
31782;SDS011;18351;47.560;9.708;2023-04-01T12:39:22;0.63;;;0.55;;
31782;SDS011;18351;47.560;9.708;2023-04-01T12:44:52;1.27;;;0.60;;
31782;SDS011;18351;47.560;9.708;2023-04-01T12:53:09;2.85;;;1.30;;
31782;SDS011;18351;47.560;9.708;2023-04-01T12:55:50;2.47;;;1.15;;
31782;SDS011;18351;47.560;9.708;2023-04-01T13:04:16;0.70;;;0.70;;
31782;SDS011;18351;47.560;9.708;2023-04-01T13:13:16;1.73;;;1.20;;
31782;SDS011;18351;47.560;9.708;2023-04-01T13:16:05;13.52;;;6.68;;
31782;SDS011;18351;47.560;9.708;2023-04-01T13:27:35;0.93;;;0.82;;
31782;SDS011;18351;47.560;9.708;2023-04-01T13:30:24;1.67;;;0.80;;
31782;SDS011;18351;47.560;9.708;2023-04-01T13:33:04;1.20;;;1.07;;
31782;SDS011;18351;47.560;9.708;2023-04-01T13:50:15;1.10;;;0.70;;
31782;SDS011;18351;47.560;9.708;2023-04-01T13:58:49;2.00;;;1.30;;
31782;SDS011;18351;47.560;9.708;2023-04-01T14:23:56;3.00;;;1.00;;
31782;SDS011;18351;47.560;9.708;2023-04-01T14:26:35;3.60;;;2.25;;
31782;SDS011;18351;47.560;9.708;2023-04-01T14:29:24;1.17;;;1.08;;
31782;SDS011;18351;47.560;9.708;2023-04-01T14:32:24;8.13;;;4.90;;
31782;SDS011;18351;47.560;9.708;2023-04-01T14:47:04;8.10;;;5.93;;
31782;SDS011;18351;47.560;9.708;2023-04-01T14:49:51;33.60;;;24.88;;
31782;SDS011;18351;47.560;9.708;2023-04-01T14:52:30;63.65;;;44.38;;
31782;SDS011;18351;47.560;9.708;2023-04-01T14:55:01;106.13;;;70.65;;
31782;SDS011;18351;47.560;9.708;2023-04-01T14:57:43;37.35;;;25.80;;
31782;SDS011;18351;47.560;9.708;2023-04-01T15:00:47;63.38;;;48.58;;
31782;SDS011;18351;47.560;9.708;2023-04-01T15:03:33;20.30;;;16.65;;
31782;SDS011;18351;47.560;9.708;2023-04-01T15:12:01;8.80;;;7.90;;
31782;SDS011;18351;47.560;9.708;2023-04-01T15:28:24;2.65;;;2.38;;
31782;SDS011;18351;47.560;9.708;2023-04-01T15:31:08;2.28;;;1.80;;
31782;SDS011;18351;47.560;9.708;2023-04-01T15:33:42;2.70;;;1.83;;
31782;SDS011;18351;47.560;9.708;2023-04-01T15:36:28;3.38;;;1.55;;
31782;SDS011;18351;47.560;9.708;2023-04-01T15:44:52;8.45;;;5.70;;
31782;SDS011;18351;47.560;9.708;2023-04-01T15:48:25;2.72;;;2.20;;
31782;SDS011;18351;47.560;9.708;2023-04-01T15:57:09;5.40;;;3.40;;
31782;SDS011;18351;47.560;9.708;2023-04-01T16:02:43;1.75;;;1.10;;
31782;SDS011;18351;47.560;9.708;2023-04-01T16:05:31;2.78;;;1.13;;
31782;SDS011;18351;47.560;9.708;2023-04-01T16:13:51;4.95;;;1.15;;
31782;SDS011;18351;47.560;9.708;2023-04-01T16:16:49;2.45;;;1.50;;
31782;SDS011;18351;47.560;9.708;2023-04-01T16:24:32;2.75;;;1.67;;
31782;SDS011;18351;47.560;9.708;2023-04-01T16:27:14;0.98;;;0.95;;
31782;SDS011;18351;47.560;9.708;2023-04-01T16:35:22;1.48;;;1.35;;
31782;SDS011;18351;47.560;9.708;2023-04-01T16:38:22;3.85;;;3.00;;
31782;SDS011;18351;47.560;9.708;2023-04-01T16:43:50;1.27;;;0.98;;
31782;SDS011;18351;47.560;9.708;2023-04-01T16:46:26;1.38;;;1.10;;
31782;SDS011;18351;47.560;9.708;2023-04-01T16:51:47;1.92;;;1.45;;
31782;SDS011;18351;47.560;9.708;2023-04-01T16:54:30;2.85;;;1.17;;
31782;SDS011;18351;47.560;9.708;2023-04-01T16:57:23;4.00;;;1.80;;
31782;SDS011;18351;47.560;9.708;2023-04-01T17:02:31;1.30;;;1.20;;
31782;SDS011;18351;47.560;9.708;2023-04-01T17:07:51;2.38;;;1.50;;
31782;SDS011;18351;47.560;9.708;2023-04-01T17:10:59;2.28;;;1.30;;
31782;SDS011;18351;47.560;9.708;2023-04-01T17:13:34;3.17;;;1.33;;
31782;SDS011;18351;47.560;9.708;2023-04-01T17:30:43;2.20;;;0.80;;
31782;SDS011;18351;47.560;9.708;2023-04-01T17:36:11;4.47;;;1.20;;
31782;SDS011;18351;47.560;9.708;2023-04-01T17:39:04;1.33;;;1.23;;
31782;SDS011;18351;47.560;9.708;2023-04-01T17:41:57;3.28;;;1.70;;
31782;SDS011;18351;47.560;9.708;2023-04-01T17:44:57;1.58;;;1.20;;
31782;SDS011;18351;47.560;9.708;2023-04-01T17:58:00;5.40;;;3.47;;
31782;SDS011;18351;47.560;9.708;2023-04-01T18:06:26;13.25;;;7.90;;
31782;SDS011;18351;47.560;9.708;2023-04-01T18:23:39;10.68;;;5.75;;
31782;SDS011;18351;47.560;9.708;2023-04-01T18:26:23;3.80;;;3.20;;
31782;SDS011;18351;47.560;9.708;2023-04-01T18:31:51;6.82;;;4.60;;
31782;SDS011;18351;47.560;9.708;2023-04-01T18:37:22;5.72;;;4.47;;
31782;SDS011;18351;47.560;9.708;2023-04-01T18:39:52;9.27;;;4.50;;
31782;SDS011;18351;47.560;9.708;2023-04-01T18:45:28;11.95;;;6.78;;
31782;SDS011;18351;47.560;9.708;2023-04-01T18:48:08;17.60;;;9.07;;
31782;SDS011;18351;47.560;9.708;2023-04-01T18:53:21;10.98;;;5.45;;
31782;SDS011;18351;47.560;9.708;2023-04-01T18:56:06;6.07;;;3.67;;
31782;SDS011;18351;47.560;9.708;2023-04-01T19:04:28;15.88;;;9.70;;
31782;SDS011;18351;47.560;9.708;2023-04-01T19:06:59;17.02;;;10.57;;
31782;SDS011;18351;47.560;9.708;2023-04-01T19:09:31;17.90;;;11.23;;
31782;SDS011;18351;47.560;9.708;2023-04-01T19:18:36;20.17;;;13.73;;
31782;SDS011;18351;47.560;9.708;2023-04-01T19:26:17;15.73;;;9.38;;
31782;SDS011;18351;47.560;9.708;2023-04-01T19:37:51;19.38;;;13.00;;
31782;SDS011;18351;47.560;9.708;2023-04-01T19:40:37;7.03;;;6.03;;
31782;SDS011;18351;47.560;9.708;2023-04-01T19:43:17;9.70;;;7.18;;
31782;SDS011;18351;47.560;9.708;2023-04-01T19:45:48;6.75;;;6.05;;
31782;SDS011;18351;47.560;9.708;2023-04-01T19:51:15;13.40;;;6.78;;
31782;SDS011;18351;47.560;9.708;2023-04-01T19:53:55;8.02;;;5.38;;
31782;SDS011;18351;47.560;9.708;2023-04-01T19:56:37;7.72;;;5.43;;
31782;SDS011;18351;47.560;9.708;2023-04-01T20:04:44;5.15;;;3.72;;
31782;SDS011;18351;47.560;9.708;2023-04-01T20:07:18;6.88;;;4.57;;
31782;SDS011;18351;47.560;9.708;2023-04-01T20:10:09;3.95;;;3.28;;
31782;SDS011;18351;47.560;9.708;2023-04-01T20:12:49;3.40;;;3.10;;
31782;SDS011;18351;47.560;9.708;2023-04-01T20:15:36;3.58;;;2.90;;
31782;SDS011;18351;47.560;9.708;2023-04-01T20:18:08;4.82;;;3.08;;
31782;SDS011;18351;47.560;9.708;2023-04-01T20:20:41;2.97;;;2.67;;
31782;SDS011;18351;47.560;9.708;2023-04-01T20:26:21;2.72;;;1.92;;
31782;SDS011;18351;47.560;9.708;2023-04-01T20:37:29;8.02;;;7.22;;
31782;SDS011;18351;47.560;9.708;2023-04-01T20:40:17;6.68;;;5.22;;
31782;SDS011;18351;47.560;9.708;2023-04-01T20:46:04;4.40;;;4.00;;
31782;SDS011;18351;47.560;9.708;2023-04-01T20:48:48;5.35;;;3.85;;
31782;SDS011;18351;47.560;9.708;2023-04-01T20:51:58;3.55;;;3.25;;
31782;SDS011;18351;47.560;9.708;2023-04-01T21:02:59;5.72;;;2.90;;
31782;SDS011;18351;47.560;9.708;2023-04-01T21:08:24;3.67;;;2.90;;
31782;SDS011;18351;47.560;9.708;2023-04-01T21:11:25;2.88;;;2.53;;
31782;SDS011;18351;47.560;9.708;2023-04-01T21:16:52;3.58;;;2.35;;
31782;SDS011;18351;47.560;9.708;2023-04-01T21:27:50;4.03;;;2.60;;
31782;SDS011;18351;47.560;9.708;2023-04-01T21:33:34;2.05;;;1.83;;
31782;SDS011;18351;47.560;9.708;2023-04-01T21:36:12;4.75;;;2.40;;
31782;SDS011;18351;47.560;9.708;2023-04-01T21:41:53;4.78;;;2.63;;
31782;SDS011;18351;47.560;9.708;2023-04-01T21:44:48;2.72;;;2.28;;
31782;SDS011;18351;47.560;9.708;2023-04-01T21:59:13;2.10;;;1.75;;
31782;SDS011;18351;47.560;9.708;2023-04-01T22:04:32;4.00;;;2.17;;
31782;SDS011;18351;47.560;9.708;2023-04-01T22:07:17;3.88;;;2.58;;
31782;SDS011;18351;47.560;9.708;2023-04-01T22:12:40;2.13;;;1.88;;
31782;SDS011;18351;47.560;9.708;2023-04-01T22:18:31;3.45;;;2.10;;
31782;SDS011;18351;47.560;9.708;2023-04-01T22:21:00;3.65;;;2.63;;
31782;SDS011;18351;47.560;9.708;2023-04-01T22:23:36;2.67;;;1.95;;
31782;SDS011;18351;47.560;9.708;2023-04-01T22:29:12;3.38;;;2.05;;
31782;SDS011;18351;47.560;9.708;2023-04-01T22:32:27;4.65;;;2.10;;
31782;SDS011;18351;47.560;9.708;2023-04-01T22:34:48;3.13;;;2.22;;
31782;SDS011;18351;47.560;9.708;2023-04-01T22:37:34;2.50;;;2.03;;
31782;SDS011;18351;47.560;9.708;2023-04-01T22:56:51;2.47;;;1.75;;
31782;SDS011;18351;47.560;9.708;2023-04-01T23:02:35;4.40;;;1.60;;
31782;SDS011;18351;47.560;9.708;2023-04-01T23:05:05;2.42;;;1.50;;
31782;SDS011;18351;47.560;9.708;2023-04-01T23:07:47;1.45;;;1.23;;
31782;SDS011;18351;47.560;9.708;2023-04-01T23:13:01;2.60;;;1.52;;
31782;SDS011;18351;47.560;9.708;2023-04-01T23:15:30;3.45;;;1.80;;
31782;SDS011;18351;47.560;9.708;2023-04-01T23:21:03;1.95;;;1.50;;
31782;SDS011;18351;47.560;9.708;2023-04-01T23:28:58;1.75;;;1.65;;
31782;SDS011;18351;47.560;9.708;2023-04-01T23:31:34;2.53;;;1.60;;
31782;SDS011;18351;47.560;9.708;2023-04-01T23:36:37;3.13;;;1.50;;
31782;SDS011;18351;47.560;9.708;2023-04-01T23:39:05;2.22;;;2.03;;
31782;SDS011;18351;47.560;9.708;2023-04-01T23:41:44;1.90;;;1.70;;
31782;SDS011;18351;47.560;9.708;2023-04-01T23:44:11;2.85;;;1.80;;
31782;SDS011;18351;47.560;9.708;2023-04-01T23:46:39;2.40;;;1.70;;
31782;SDS011;18351;47.560;9.708;2023-04-01T23:49:10;2.10;;;1.73;;
31782;SDS011;18351;47.560;9.708;2023-04-01T23:51:58;3.25;;;1.52;;
31782;SDS011;18351;47.560;9.708;2023-04-01T23:54:29;2.25;;;1.70;;
31782;SDS011;18351;47.560;9.708;2023-04-01T23:57:04;3.88;;;1.95;;
31782;SDS011;18351;47.560;9.708;2023-04-01T23:59:36;2.65;;;1.90;;
